Stein, Netherlands
Current Conditions -  °F | °C
As of 4:25 AM on Thursday 23 Oct 2014 (Local Time) from EHBK Reporting Station
Overcast Overcast  
Wind Chill: 45°   Ceiling: 4800
Heat Index: 48°   Visibility: 5mi
Dew Point: 45°   Wind: 7mph
Humidity: 87%   Direction: 210°SSW
Pressure: 30.21"   Gusts: NA
Location:  50.97°N, 5.77°E
Report Text: EHBK 230225Z AUTO 21006KT 8000 FEW028 OVC048 09/07 Q1023
Loading
Personal Weather Stations






























Interactive Weather Map
Tropical Storm Tracking
New forecast layout! Learn more

10-Day Weather Forecast

Advertisements
Track Severe Weather on mobile